Time;durP1;ratioP1;P1;durP2;ratioP2;P2;SDS_P1;SDS_P2;PMS_P1;PMS_P2;Temp;Humidity;BMP_temperature;BMP_pressure;BME280_temperature;BME280_humidity;BME280_pressure;Samples;Min_cycle;Max_cycle;Signal;HPM_P1;HPM_P2
2021/03/03 00:00:28;;;;;;;;;;;19.80;99.90;;;;;;4982862;28;20392;-80
2021/03/03 00:02:54;;;;;;;;;;;19.80;99.90;;;;;;4959659;28;19914;-81
2021/03/03 00:05:21;;;;;;;;;;;19.90;99.90;;;;;;4974371;28;20591;-81
2021/03/03 00:07:48;;;;;;;;;;;20.00;99.90;;;;;;4997474;28;19957;-81
2021/03/03 00:10:14;;;;;;;;;;;20.00;99.90;;;;;;5000753;28;20435;-80
2021/03/03 00:12:41;;;;;;;;;;;19.80;99.90;;;;;;4982351;28;19925;-81
2021/03/03 00:15:08;;;;;;;;;;;19.80;99.90;;;;;;4991113;28;19920;-80
2021/03/03 00:17:35;;;;;;;;;;;19.80;99.90;;;;;;4984398;28;19973;-80
2021/03/03 00:20:02;;;;;;;;;;;19.70;99.90;;;;;;4979448;28;19968;-81
2021/03/03 00:22:29;;;;;;;;;;;19.80;99.90;;;;;;4992952;28;19918;-80
2021/03/03 00:24:56;;;;;;;;;;;19.80;99.90;;;;;;5001993;28;19924;-82
2021/03/03 00:27:22;;;;;;;;;;;19.80;99.90;;;;;;4985562;28;19913;-79
2021/03/03 00:29:49;;;;;;;;;;;20.20;99.90;;;;;;5001996;28;19975;-81
2021/03/03 00:32:16;;;;;;;;;;;20.30;99.90;;;;;;5009464;28;19909;-81
2021/03/03 00:34:42;;;;;;;;;;;20.40;99.90;;;;;;4991177;28;20400;-81
2021/03/03 00:37:10;;;;;;;;;;;20.40;99.90;;;;;;5006869;28;19917;-80
2021/03/03 00:39:37;;;;;;;;;;;20.40;99.90;;;;;;4997914;28;19914;-85
2021/03/03 00:42:05;;;;;;;;;;;20.50;99.90;;;;;;4994161;28;20339;-81
2021/03/03 00:44:32;;;;;;;;;;;20.50;99.90;;;;;;4987402;28;19961;-83
2021/03/03 00:46:58;;;;;;;;;;;20.50;99.90;;;;;;4973351;28;19914;-80
2021/03/03 00:49:26;;;;;;;;;;;20.50;99.90;;;;;;4973757;28;19997;-84
2021/03/03 00:51:53;;;;;;;;;;;20.60;99.90;;;;;;4956149;28;19922;-86
2021/03/03 00:54:20;;;;;;;;;;;20.70;99.90;;;;;;4972297;28;19914;-84
2021/03/03 00:56:51;;;;;;;;;;;20.70;99.90;;;;;;4971541;28;19973;-87
2021/03/03 00:59:18;;;;;;;;;;;20.60;99.90;;;;;;4974028;28;19936;-84
2021/03/03 01:01:44;;;;;;;;;;;20.50;99.90;;;;;;4992049;28;19914;-83
2021/03/03 01:04:11;;;;;;;;;;;20.60;99.90;;;;;;4973988;28;19913;-86
2021/03/03 01:06:37;;;;;;;;;;;20.80;99.60;;;;;;4981185;28;19976;-85
2021/03/03 01:09:04;;;;;;;;;;;20.90;99.90;;;;;;4980010;28;20395;-89
2021/03/03 01:11:31;;;;;;;;;;;21.00;99.60;;;;;;5002274;28;19927;-81
2021/03/03 01:13:58;;;;;;;;;;;21.00;99.40;;;;;;4991769;28;19924;-84
2021/03/03 01:16:24;;;;;;;;;;;21.10;99.80;;;;;;4992612;28;20383;-81
2021/03/03 01:18:51;;;;;;;;;;;21.40;99.10;;;;;;4994765;28;20004;-80
2021/03/03 01:21:18;;;;;;;;;;;21.50;98.60;;;;;;4991575;28;20020;-81
2021/03/03 01:23:45;;;;;;;;;;;21.40;98.60;;;;;;4972782;28;19918;-88
2021/03/03 01:26:11;;;;;;;;;;;21.20;98.90;;;;;;4980052;28;19972;-92
2021/03/03 01:28:38;;;;;;;;;;;21.10;98.70;;;;;;4992039;28;19913;-80
2021/03/03 01:31:05;;;;;;;;;;;21.10;98.80;;;;;;4989729;28;19921;-81
2021/03/03 01:33:34;;;;;;;;;;;21.30;98.30;;;;;;4991693;28;20000;-80
2021/03/03 01:36:01;;;;;;;;;;;21.70;98.10;;;;;;4974107;28;20391;-82
2021/03/03 01:38:28;;;;;;;;;;;22.10;97.00;;;;;;4991641;28;19925;-84
2021/03/03 01:40:55;;;;;;;;;;;22.20;96.60;;;;;;4974524;28;19914;-82
2021/03/03 01:43:22;;;;;;;;;;;22.30;96.60;;;;;;4991730;28;20619;-85
2021/03/03 01:45:51;;;;;;;;;;;22.50;95.90;;;;;;4991859;28;20015;-81
2021/03/03 01:48:18;;;;;;;;;;;22.40;96.00;;;;;;4991324;28;19993;-78
2021/03/03 01:50:45;;;;;;;;;;;22.40;95.60;;;;;;4991849;28;19921;-77
2021/03/03 01:53:12;;;;;;;;;;;22.40;96.20;;;;;;4991442;28;19936;-78
2021/03/03 01:55:39;;;;;;;;;;;22.30;95.80;;;;;;4990356;28;19972;-78
2021/03/03 01:58:06;;;;;;;;;;;22.30;95.90;;;;;;4990178;28;20395;-77
2021/03/03 02:00:33;;;;;;;;;;;22.20;96.00;;;;;;4973021;28;19914;-76
2021/03/03 02:02:59;;;;;;;;;;;21.90;96.10;;;;;;4953564;28;19917;-77
2021/03/03 02:05:26;;;;;;;;;;;21.80;96.70;;;;;;4971640;28;19957;-77
2021/03/03 02:07:53;;;;;;;;;;;21.90;96.90;;;;;;4964322;28;20435;-77
2021/03/03 02:10:26;;;;;;;;;;;21.90;96.20;;;;;;4991027;28;19922;-77
2021/03/03 02:12:59;;;;;;;;;;;21.80;97.00;;;;;;4973441;28;19949;-77
2021/03/03 02:15:26;;;;;;;;;;;21.70;96.60;;;;;;4991338;28;19933;-77
2021/03/03 02:17:56;;;;;;;;;;;21.60;97.30;;;;;;4991397;28;19972;-77
2021/03/03 02:20:25;;;;;;;;;;;21.50;97.20;;;;;;4973583;28;19910;-78
2021/03/03 02:23:11;;;;;;;;;;;21.50;97.50;;;;;;4990855;28;19910;-76
2021/03/03 02:25:39;;;;;;;;;;;21.40;97.60;;;;;;4991286;28;19964;-76
2021/03/03 02:28:10;;;;;;;;;;;21.40;98.00;;;;;;4991256;28;19913;-76
2021/03/03 02:30:38;;;;;;;;;;;21.20;97.90;;;;;;4993388;28;19918;-78
2021/03/03 02:33:05;;;;;;;;;;;21.10;97.90;;;;;;5001602;28;19921;-76
2021/03/03 02:35:33;;;;;;;;;;;21.10;98.10;;;;;;4996405;28;19910;-80
2021/03/03 02:38:03;;;;;;;;;;;21.20;97.80;;;;;;4981334;28;19929;-80
2021/03/03 02:40:30;;;;;;;;;;;21.30;97.70;;;;;;5000886;28;19972;-79
2021/03/03 02:42:58;;;;;;;;;;;21.40;97.50;;;;;;4990851;28;20008;-80
2021/03/03 02:45:25;;;;;;;;;;;21.30;97.70;;;;;;4991588;28;19917;-79
2021/03/03 02:47:53;;;;;;;;;;;21.30;97.90;;;;;;5011504;28;19945;-78
2021/03/03 02:50:20;;;;;;;;;;;21.50;97.30;;;;;;5014356;28;19918;-80
2021/03/03 02:52:49;;;;;;;;;;;21.50;97.10;;;;;;5007372;28;20048;-79
2021/03/03 02:55:16;;;;;;;;;;;21.50;97.30;;;;;;5022145;28;19914;-78
2021/03/03 02:57:43;;;;;;;;;;;21.60;96.80;;;;;;5001832;28;20009;-82
2021/03/03 03:00:11;;;;;;;;;;;21.60;97.50;;;;;;5019922;28;19914;-80
2021/03/03 03:02:38;;;;;;;;;;;21.70;97.30;;;;;;5008136;28;19925;-80
2021/03/03 03:05:07;;;;;;;;;;;21.80;98.00;;;;;;5013833;28;19960;-83
2021/03/03 03:07:36;;;;;;;;;;;22.10;97.60;;;;;;5008740;28;20008;-82
2021/03/03 03:10:03;;;;;;;;;;;22.10;96.00;;;;;;4994925;28;19929;-80
2021/03/03 03:12:31;;;;;;;;;;;21.90;95.80;;;;;;4994753;28;19917;-84
2021/03/03 03:14:59;;;;;;;;;;;21.90;95.70;;;;;;4975737;28;20000;-82
2021/03/03 03:17:26;;;;;;;;;;;21.90;96.50;;;;;;4994990;28;19921;-80
2021/03/03 03:19:54;;;;;;;;;;;22.00;97.00;;;;;;5015195;28;20032;-79
2021/03/03 03:22:21;;;;;;;;;;;22.10;96.40;;;;;;4996088;28;20419;-79
2021/03/03 03:24:49;;;;;;;;;;;22.20;96.50;;;;;;4995216;28;19914;-81
2021/03/03 03:27:18;;;;;;;;;;;22.10;96.40;;;;;;4996319;28;19918;-82
2021/03/03 03:29:45;;;;;;;;;;;22.10;96.70;;;;;;4977047;28;19949;-83
2021/03/03 03:32:12;;;;;;;;;;;22.10;95.90;;;;;;4993883;28;19917;-82
2021/03/03 03:34:39;;;;;;;;;;;22.20;96.70;;;;;;4993686;28;19910;-82
2021/03/03 03:37:07;;;;;;;;;;;22.20;96.70;;;;;;4993481;28;19920;-84
2021/03/03 03:39:35;;;;;;;;;;;22.10;96.90;;;;;;4993952;28;19910;-86
2021/03/03 03:42:02;;;;;;;;;;;22.10;96.30;;;;;;4976399;28;19914;-84
2021/03/03 03:44:30;;;;;;;;;;;22.10;96.70;;;;;;5006718;28;20375;-86
2021/03/03 03:46:57;;;;;;;;;;;22.10;96.20;;;;;;4995846;28;19910;-84
2021/03/03 03:49:24;;;;;;;;;;;22.10;96.20;;;;;;4986327;28;19914;-83
2021/03/03 03:51:50;;;;;;;;;;;22.10;96.30;;;;;;4956714;28;19910;-81
2021/03/03 03:54:17;;;;;;;;;;;22.10;96.10;;;;;;4966911;28;19996;-81
2021/03/03 03:56:45;;;;;;;;;;;22.10;95.60;;;;;;4995678;28;19928;-82
2021/03/03 03:59:15;;;;;;;;;;;22.20;96.50;;;;;;5005071;28;19910;-83
2021/03/03 04:01:41;;;;;;;;;;;22.30;97.10;;;;;;4993516;28;20300;-85
2021/03/03 04:04:08;;;;;;;;;;;22.30;96.30;;;;;;5010341;28;19973;-84
2021/03/03 04:06:36;;;;;;;;;;;22.20;96.00;;;;;;5012947;28;19967;-83
2021/03/03 04:09:06;;;;;;;;;;;22.40;96.80;;;;;;5011985;28;19964;-83
2021/03/03 04:11:33;;;;;;;;;;;22.40;96.50;;;;;;4991821;28;19948;-83
2021/03/03 04:14:11;;;;;;;;;;;;;;;;;;;;;
2021/03/03 04:16:38;;;;;;;;;;;21.90;97.50;;;;;;4998863;28;19935;-85
2021/03/03 04:19:04;;;;;;;;;;;21.90;97.40;;;;;;5012155;28;19917;-82
2021/03/03 04:21:31;;;;;;;;;;;21.80;97.70;;;;;;4994524;28;20312;-81
2021/03/03 04:23:58;;;;;;;;;;;21.70;97.40;;;;;;4993826;28;20019;-82
2021/03/03 04:26:25;;;;;;;;;;;21.60;97.80;;;;;;4995333;28;20028;-85
2021/03/03 04:28:53;;;;;;;;;;;21.70;98.30;;;;;;5011440;28;19917;-85
2021/03/03 04:31:19;;;;;;;;;;;21.70;97.80;;;;;;5012313;28;20324;-85
2021/03/03 04:33:46;;;;;;;;;;;21.90;98.10;;;;;;5011907;28;20356;-83
2021/03/03 04:36:13;;;;;;;;;;;21.90;97.60;;;;;;5010506;28;19918;-83
2021/03/03 04:38:39;;;;;;;;;;;21.80;97.90;;;;;;5000325;28;19920;-83
2021/03/03 04:41:06;;;;;;;;;;;21.70;98.50;;;;;;5000884;28;19924;-85
2021/03/03 04:43:33;;;;;;;;;;;21.70;98.60;;;;;;5005126;28;19925;-86
2021/03/03 04:45:59;;;;;;;;;;;21.50;97.90;;;;;;4990374;28;19914;-84
2021/03/03 04:48:26;;;;;;;;;;;21.40;98.50;;;;;;4993168;28;20315;-81
2021/03/03 04:50:53;;;;;;;;;;;21.50;98.70;;;;;;5001483;28;19949;-85
2021/03/03 04:53:21;;;;;;;;;;;21.70;98.20;;;;;;4982765;28;19920;-81
2021/03/03 04:55:47;;;;;;;;;;;21.70;98.00;;;;;;5002084;28;19917;-78
2021/03/03 04:58:14;;;;;;;;;;;21.80;97.70;;;;;;5000326;28;19922;-80
2021/03/03 05:00:41;;;;;;;;;;;21.70;98.00;;;;;;4986542;28;20360;-77
2021/03/03 05:03:08;;;;;;;;;;;21.60;97.80;;;;;;4993888;28;19916;-81
2021/03/03 05:05:34;;;;;;;;;;;21.60;98.10;;;;;;4997241;28;19921;-79
2021/03/03 05:08:01;;;;;;;;;;;21.50;98.20;;;;;;5016506;28;19917;-79
2021/03/03 05:10:28;;;;;;;;;;;21.40;98.10;;;;;;5015610;28;20115;-81
2021/03/03 05:12:54;;;;;;;;;;;21.50;98.40;;;;;;4996899;28;20020;-81
2021/03/03 05:15:21;;;;;;;;;;;21.60;98.30;;;;;;4991485;28;19921;-80
2021/03/03 05:17:48;;;;;;;;;;;21.70;98.00;;;;;;4996967;28;19945;-80
2021/03/03 05:20:15;;;;;;;;;;;21.70;97.90;;;;;;5013931;28;19902;-81
2021/03/03 05:22:41;;;;;;;;;;;21.60;98.00;;;;;;4978470;28;19914;-79
2021/03/03 05:25:08;;;;;;;;;;;21.40;98.20;;;;;;4998924;28;19918;-79
2021/03/03 05:27:35;;;;;;;;;;;21.20;98.50;;;;;;4988612;28;19976;-80
2021/03/03 05:30:02;;;;;;;;;;;21.20;98.60;;;;;;4972760;28;19909;-82
2021/03/03 05:32:29;;;;;;;;;;;21.10;98.40;;;;;;4971298;28;19914;-79
2021/03/03 05:34:55;;;;;;;;;;;21.00;98.70;;;;;;4971177;28;19910;-81
2021/03/03 05:37:22;;;;;;;;;;;21.10;99.10;;;;;;4972073;28;19980;-80
2021/03/03 05:39:48;;;;;;;;;;;21.20;98.80;;;;;;4956850;28;19919;-80
2021/03/03 05:42:15;;;;;;;;;;;21.30;98.50;;;;;;4954441;28;20009;-78
2021/03/03 05:44:44;;;;;;;;;;;21.30;98.70;;;;;;4972045;28;20332;-79
2021/03/03 05:47:11;;;;;;;;;;;21.20;98.50;;;;;;4954671;28;19911;-79
2021/03/03 05:49:39;;;;;;;;;;;21.10;99.00;;;;;;4975849;28;20356;-79
2021/03/03 05:52:06;;;;;;;;;;;21.10;99.10;;;;;;4993409;28;20276;-80
2021/03/03 05:54:33;;;;;;;;;;;21.00;98.90;;;;;;4978037;28;19960;-83
2021/03/03 05:57:00;;;;;;;;;;;21.00;99.10;;;;;;4954373;28;20017;-84
2021/03/03 05:59:27;;;;;;;;;;;21.00;99.10;;;;;;4973519;28;19917;-84
2021/03/03 06:01:57;;;;;;;;;;;21.00;98.80;;;;;;4974448;28;20574;-80
2021/03/03 06:04:23;;;;;;;;;;;21.00;99.10;;;;;;4972631;28;20303;-80
2021/03/03 06:06:50;;;;;;;;;;;20.90;99.00;;;;;;4973542;28;19910;-80
2021/03/03 06:09:18;;;;;;;;;;;20.90;99.20;;;;;;4973456;28;20292;-79
2021/03/03 06:11:45;;;;;;;;;;;21.00;99.00;;;;;;4991677;28;20004;-79
2021/03/03 06:14:12;;;;;;;;;;;21.10;98.70;;;;;;4991277;28;19913;-78
2021/03/03 06:16:39;;;;;;;;;;;21.20;98.90;;;;;;4991208;28;19973;-79
2021/03/03 06:19:06;;;;;;;;;;;21.20;98.90;;;;;;5005874;28;19917;-81
2021/03/03 06:21:33;;;;;;;;;;;21.20;98.80;;;;;;5004185;28;19910;-79
2021/03/03 06:24:00;;;;;;;;;;;21.10;98.90;;;;;;4955957;28;20408;-81
2021/03/03 06:26:27;;;;;;;;;;;21.10;99.50;;;;;;4975359;28;19953;-80
2021/03/03 06:28:54;;;;;;;;;;;21.10;99.10;;;;;;4957123;28;19964;-81
2021/03/03 06:31:28;;;;;;;;;;;21.00;99.10;;;;;;4976200;28;20271;-78
2021/03/03 06:34:15;;;;;;;;;;;20.90;99.70;;;;;;4975169;28;19985;-80
2021/03/03 06:36:49;;;;;;;;;;;20.90;99.80;;;;;;4993812;28;19975;-79
2021/03/03 06:39:15;;;;;;;;;;;20.90;99.30;;;;;;4995168;28;20378;-85
2021/03/03 06:41:42;;;;;;;;;;;20.80;99.60;;;;;;4977832;28;20007;-86
2021/03/03 06:44:09;;;;;;;;;;;20.80;99.50;;;;;;4976558;28;20004;-78
2021/03/03 06:46:36;;;;;;;;;;;20.80;99.90;;;;;;4977006;28;19910;-84
2021/03/03 06:49:03;;;;;;;;;;;20.70;99.70;;;;;;4994677;28;19910;-79
2021/03/03 06:51:30;;;;;;;;;;;20.70;99.90;;;;;;4994615;28;19917;-79
2021/03/03 06:54:00;;;;;;;;;;;20.70;99.80;;;;;;4982973;28;19929;-80
2021/03/03 06:56:33;;;;;;;;;;;20.60;99.90;;;;;;5001060;28;20576;-78
2021/03/03 06:59:10;;;;;;;;;;;20.70;99.90;;;;;;4998830;28;19918;-78
2021/03/03 07:01:37;;;;;;;;;;;20.60;99.90;;;;;;4984743;28;19918;-79
2021/03/03 07:04:04;;;;;;;;;;;20.60;99.90;;;;;;4977087;28;19992;-82
2021/03/03 07:06:32;;;;;;;;;;;20.60;99.90;;;;;;4993326;28;20427;-79
2021/03/03 07:08:59;;;;;;;;;;;20.60;99.90;;;;;;5011118;28;19914;-81
2021/03/03 07:11:31;;;;;;;;;;;20.60;99.90;;;;;;4994606;28;20368;-79
2021/03/03 07:13:58;;;;;;;;;;;20.70;99.90;;;;;;4993121;28;19917;-81
2021/03/03 07:16:24;;;;;;;;;;;20.70;99.90;;;;;;5026593;28;19902;-79
2021/03/03 07:18:51;;;;;;;;;;;20.60;99.90;;;;;;5028473;28;19924;-81
2021/03/03 07:21:35;;;;;;;;;;;20.50;99.90;;;;;;5011315;28;19914;-82
2021/03/03 07:24:02;;;;;;;;;;;20.50;99.90;;;;;;5011945;28;19913;-80
2021/03/03 07:26:28;;;;;;;;;;;20.50;99.90;;;;;;5017953;28;19930;-79
2021/03/03 07:28:56;;;;;;;;;;;20.60;99.90;;;;;;5028725;28;19928;-82
2021/03/03 07:31:23;;;;;;;;;;;20.60;99.90;;;;;;5014095;28;19928;-78
2021/03/03 07:33:50;;;;;;;;;;;20.60;99.90;;;;;;5013394;28;19925;-81
2021/03/03 07:36:17;;;;;;;;;;;20.60;99.90;;;;;;5012243;28;19952;-79
2021/03/03 07:38:46;;;;;;;;;;;20.60;99.90;;;;;;5013282;28;20374;-79
2021/03/03 07:41:14;;;;;;;;;;;20.60;99.90;;;;;;5012285;28;19914;-81
2021/03/03 07:43:44;;;;;;;;;;;20.70;99.90;;;;;;5013459;28;19968;-78
2021/03/03 07:46:12;;;;;;;;;;;20.60;99.90;;;;;;5013256;28;19914;-80
2021/03/03 07:48:40;;;;;;;;;;;20.50;99.90;;;;;;4995417;28;20360;-79
2021/03/03 07:51:07;;;;;;;;;;;20.50;99.90;;;;;;4995339;28;19910;-79
2021/03/03 07:53:39;;;;;;;;;;;20.40;99.90;;;;;;5012784;28;19917;-78
2021/03/03 07:56:07;;;;;;;;;;;20.40;99.90;;;;;;5013177;28;20287;-82
2021/03/03 07:58:35;;;;;;;;;;;20.40;99.90;;;;;;5013002;28;19947;-80
2021/03/03 08:01:02;;;;;;;;;;;20.30;99.90;;;;;;5012102;28;19916;-78
2021/03/03 08:03:42;;;;;;;;;;;20.30;99.90;;;;;;4995066;28;19913;-80
2021/03/03 08:06:21;;;;;;;;;;;20.20;99.90;;;;;;5012454;28;19909;-81
2021/03/03 08:09:06;;;;;;;;;;;20.20;99.90;;;;;;5012584;28;19983;-79
2021/03/03 08:11:34;;;;;;;;;;;20.20;99.90;;;;;;4995289;28;20431;-80
2021/03/03 08:14:01;;;;;;;;;;;20.10;99.90;;;;;;5012829;28;19914;-79
2021/03/03 08:16:28;;;;;;;;;;;20.10;99.90;;;;;;5012069;28;19917;-79
2021/03/03 08:18:56;;;;;;;;;;;20.10;99.90;;;;;;5011830;28;19917;-79
2021/03/03 08:21:23;;;;;;;;;;;20.10;99.90;;;;;;5012488;28;19920;-79
2021/03/03 08:24:00;;;;;;;;;;;20.00;99.90;;;;;;5012727;28;19910;-80
2021/03/03 08:26:34;;;;;;;;;;;20.00;99.90;;;;;;5012787;28;20388;-81
2021/03/03 08:29:19;;;;;;;;;;;20.00;99.90;;;;;;4994434;28;19921;-81
2021/03/03 08:31:46;;;;;;;;;;;20.00;99.90;;;;;;5007211;28;20287;-79
2021/03/03 08:34:15;;;;;;;;;;;20.00;99.90;;;;;;4994947;28;19917;-79
2021/03/03 08:36:53;;;;;;;;;;;20.00;99.90;;;;;;5012399;28;20068;-79
2021/03/03 08:39:20;;;;;;;;;;;19.90;99.90;;;;;;5007966;28;19920;-78
2021/03/03 08:41:47;;;;;;;;;;;20.00;99.90;;;;;;4994673;28;19909;-78
2021/03/03 08:44:20;;;;;;;;;;;19.90;99.90;;;;;;5010383;28;20386;-78
2021/03/03 08:46:48;;;;;;;;;;;19.90;99.90;;;;;;4994237;28;19909;-78
2021/03/03 08:49:15;;;;;;;;;;;19.90;99.90;;;;;;5011991;28;20004;-80
2021/03/03 08:51:48;;;;;;;;;;;19.90;99.90;;;;;;5011806;28;20574;-80
2021/03/03 08:54:36;;;;;;;;;;;19.90;99.90;;;;;;5011886;28;19920;-81
2021/03/03 08:57:25;;;;;;;;;;;19.90;99.90;;;;;;5011507;28;20446;-80
2021/03/03 08:59:52;;;;;;;;;;;19.90;99.90;;;;;;5011791;28;19945;-79
2021/03/03 09:02:20;;;;;;;;;;;19.80;99.90;;;;;;4994255;28;19979;-80
2021/03/03 09:04:54;;;;;;;;;;;19.90;99.90;;;;;;4977950;28;19918;-79
2021/03/03 09:07:21;;;;;;;;;;;19.80;99.90;;;;;;5011818;28;19913;-78
2021/03/03 09:09:50;;;;;;;;;;;19.80;99.90;;;;;;5011441;28;19964;-79
2021/03/03 09:12:18;;;;;;;;;;;19.80;99.90;;;;;;4993560;28;19914;-78
2021/03/03 09:14:49;;;;;;;;;;;19.70;99.90;;;;;;4993644;28;20334;-80
2021/03/03 09:17:17;;;;;;;;;;;19.70;99.90;;;;;;4998606;28;19977;-79
2021/03/03 09:19:44;;;;;;;;;;;19.80;99.90;;;;;;4973779;28;19937;-79
2021/03/03 09:22:18;;;;;;;;;;;19.70;99.90;;;;;;4990432;28;20028;-79
2021/03/03 09:24:48;;;;;;;;;;;19.80;99.90;;;;;;4990923;28;20280;-78
2021/03/03 09:27:15;;;;;;;;;;;19.80;99.90;;;;;;4991951;28;19910;-79
2021/03/03 09:29:42;;;;;;;;;;;19.80;99.90;;;;;;4991938;28;20008;-79
2021/03/03 09:32:09;;;;;;;;;;;19.80;99.90;;;;;;4990912;28;19921;-79
2021/03/03 09:34:42;;;;;;;;;;;19.80;99.90;;;;;;4992114;28;20364;-80
2021/03/03 09:37:09;;;;;;;;;;;19.80;99.90;;;;;;4973758;28;19918;-79
2021/03/03 09:39:36;;;;;;;;;;;19.70;99.90;;;;;;4991069;28;19968;-79
2021/03/03 09:42:08;;;;;;;;;;;19.70;99.90;;;;;;4974249;28;20384;-79
2021/03/03 09:44:44;;;;;;;;;;;19.70;99.90;;;;;;4988751;28;19923;-79
2021/03/03 09:47:11;;;;;;;;;;;19.70;99.90;;;;;;4974080;28;19910;-78
2021/03/03 09:49:38;;;;;;;;;;;19.80;99.90;;;;;;4991276;28;19917;-80
2021/03/03 09:52:06;;;;;;;;;;;19.70;99.90;;;;;;4991337;28;19920;-79
2021/03/03 09:54:37;;;;;;;;;;;19.80;99.90;;;;;;4990941;28;19910;-79
2021/03/03 09:57:08;;;;;;;;;;;19.80;99.90;;;;;;4973896;28;19969;-79
2021/03/03 09:59:40;;;;;;;;;;;19.80;99.90;;;;;;4994804;28;19960;-78
2021/03/03 10:02:08;;;;;;;;;;;19.70;99.90;;;;;;4961819;28;19918;-79
2021/03/03 10:04:38;;;;;;;;;;;19.70;99.90;;;;;;4994885;28;20009;-80
2021/03/03 10:07:09;;;;;;;;;;;19.70;99.90;;;;;;4994942;28;19917;-77
2021/03/03 10:09:39;;;;;;;;;;;19.60;99.90;;;;;;4995362;28;19928;-78
2021/03/03 10:12:07;;;;;;;;;;;19.70;99.90;;;;;;4995829;28;19921;-79
2021/03/03 10:14:34;;;;;;;;;;;19.70;99.90;;;;;;4977922;28;19917;-78
2021/03/03 10:17:03;;;;;;;;;;;19.60;99.90;;;;;;4995031;28;20012;-79
2021/03/03 10:19:31;;;;;;;;;;;19.70;99.90;;;;;;4977566;28;20524;-78
2021/03/03 10:21:58;;;;;;;;;;;19.70;99.90;;;;;;4995081;28;20361;-78
2021/03/03 10:24:26;;;;;;;;;;;19.70;99.90;;;;;;4977680;28;19910;-78
2021/03/03 10:26:52;;;;;;;;;;;19.70;99.90;;;;;;4977654;28;20284;-79
2021/03/03 10:29:33;;;;;;;;;;;19.70;99.90;;;;;;4977296;28;19917;-79
2021/03/03 10:32:13;;;;;;;;;;;19.70;99.90;;;;;;4976798;28;19937;-79
2021/03/03 10:34:40;;;;;;;;;;;19.60;99.90;;;;;;4995063;28;19996;-79
2021/03/03 10:37:07;;;;;;;;;;;19.60;99.90;;;;;;4994661;28;20376;-80
2021/03/03 10:39:35;;;;;;;;;;;19.60;99.90;;;;;;4994913;28;19910;-78
2021/03/03 10:42:06;;;;;;;;;;;19.60;99.90;;;;;;4977333;28;19968;-77
2021/03/03 10:44:49;;;;;;;;;;;19.60;99.90;;;;;;4977823;28;19914;-78
2021/03/03 10:47:16;;;;;;;;;;;19.60;99.90;;;;;;4994811;28;19910;-79
2021/03/03 10:50:01;;;;;;;;;;;19.50;99.90;;;;;;4994175;28;20004;-79
2021/03/03 10:52:29;;;;;;;;;;;19.50;99.90;;;;;;4976344;28;19918;-79
2021/03/03 10:54:56;;;;;;;;;;;19.50;99.90;;;;;;4994106;28;19914;-80
2021/03/03 10:57:22;;;;;;;;;;;19.50;99.90;;;;;;4976777;28;20033;-80
2021/03/03 11:00:00;;;;;;;;;;;19.50;99.90;;;;;;4993849;28;20320;-79
2021/03/03 11:02:27;;;;;;;;;;;19.50;99.90;;;;;;4977009;28;19944;-79
2021/03/03 11:04:54;;;;;;;;;;;19.50;99.90;;;;;;4994277;28;19910;-81
2021/03/03 11:07:20;;;;;;;;;;;19.50;99.90;;;;;;4976856;28;19914;-78
2021/03/03 11:09:52;;;;;;;;;;;19.50;99.90;;;;;;4993675;28;19948;-78
2021/03/03 11:12:22;;;;;;;;;;;19.50;99.90;;;;;;4976985;28;20347;-81
2021/03/03 11:14:49;;;;;;;;;;;19.50;99.90;;;;;;4976481;28;19919;-78
2021/03/03 11:17:16;;;;;;;;;;;19.50;99.90;;;;;;4994122;28;19921;-79
2021/03/03 11:19:44;;;;;;;;;;;19.50;99.90;;;;;;4993213;28;19914;-78
2021/03/03 11:22:11;;;;;;;;;;;19.40;99.90;;;;;;4960280;28;19914;-78
2021/03/03 11:24:41;;;;;;;;;;;19.50;99.90;;;;;;4993575;28;20193;-79
2021/03/03 11:27:08;;;;;;;;;;;19.50;99.90;;;;;;4994058;28;19945;-80
2021/03/03 11:29:35;;;;;;;;;;;19.50;99.90;;;;;;4996382;28;19916;-79
2021/03/03 11:32:01;;;;;;;;;;;19.60;99.90;;;;;;4998319;28;19909;-78
2021/03/03 11:34:30;;;;;;;;;;;19.60;99.90;;;;;;4997820;28;19920;-78
2021/03/03 11:36:57;;;;;;;;;;;19.70;99.90;;;;;;4998328;28;20003;-78
2021/03/03 11:39:24;;;;;;;;;;;19.60;99.90;;;;;;4998514;28;19913;-78
2021/03/03 11:41:51;;;;;;;;;;;19.70;99.90;;;;;;4995378;28;20035;-80
2021/03/03 11:44:17;;;;;;;;;;;19.60;99.90;;;;;;4975339;28;19914;-79
2021/03/03 11:46:44;;;;;;;;;;;19.60;99.90;;;;;;4972292;28;20032;-79
2021/03/03 11:49:11;;;;;;;;;;;19.60;99.90;;;;;;4975832;28;19992;-78
2021/03/03 11:51:37;;;;;;;;;;;19.60;99.90;;;;;;5004851;28;19936;-78
2021/03/03 11:54:04;;;;;;;;;;;19.60;99.90;;;;;;4989000;28;20364;-79
2021/03/03 11:56:34;;;;;;;;;;;19.50;99.90;;;;;;4987094;28;19918;-79
2021/03/03 11:59:00;;;;;;;;;;;19.50;99.90;;;;;;4979339;28;19968;-80
2021/03/03 12:01:27;;;;;;;;;;;19.50;99.90;;;;;;4975336;28;19918;-79
2021/03/03 12:03:54;;;;;;;;;;;19.60;99.90;;;;;;4974420;28;19954;-80
2021/03/03 12:06:20;;;;;;;;;;;19.50;99.90;;;;;;4957286;28;19921;-78
2021/03/03 12:08:47;;;;;;;;;;;19.50;99.90;;;;;;4981741;28;20013;-80
2021/03/03 12:11:14;;;;;;;;;;;19.50;99.90;;;;;;4986533;28;19929;-80
2021/03/03 12:13:40;;;;;;;;;;;19.50;99.90;;;;;;4995336;28;19914;-78
2021/03/03 12:16:07;;;;;;;;;;;19.60;99.90;;;;;;5002694;28;19958;-79
2021/03/03 12:18:34;;;;;;;;;;;19.60;99.90;;;;;;5003065;28;20403;-78
2021/03/03 12:21:01;;;;;;;;;;;19.60;99.90;;;;;;5000440;28;19968;-79
2021/03/03 12:23:27;;;;;;;;;;;19.60;99.90;;;;;;5000539;28;20407;-79
2021/03/03 12:25:54;;;;;;;;;;;19.70;99.90;;;;;;5001308;28;19917;-80
2021/03/03 12:28:22;;;;;;;;;;;19.70;99.90;;;;;;5003886;28;19909;-78
2021/03/03 12:30:49;;;;;;;;;;;19.60;99.90;;;;;;4986810;28;20281;-78
2021/03/03 12:33:16;;;;;;;;;;;19.60;99.90;;;;;;4975658;28;19922;-79
2021/03/03 12:35:43;;;;;;;;;;;19.60;99.90;;;;;;4979035;28;19925;-78
2021/03/03 12:38:10;;;;;;;;;;;19.50;99.90;;;;;;4989236;28;19926;-79
2021/03/03 12:40:36;;;;;;;;;;;19.50;99.90;;;;;;4992507;28;19914;-78
2021/03/03 12:43:03;;;;;;;;;;;19.50;99.90;;;;;;4991637;28;20399;-79
2021/03/03 12:45:30;;;;;;;;;;;19.50;99.90;;;;;;4986366;28;19969;-79
2021/03/03 12:47:57;;;;;;;;;;;19.50;99.90;;;;;;4991873;28;19921;-78
2021/03/03 12:50:26;;;;;;;;;;;19.50;99.90;;;;;;4992412;28;19910;-78
2021/03/03 12:52:53;;;;;;;;;;;19.50;99.90;;;;;;4983386;28;19914;-78
2021/03/03 12:55:20;;;;;;;;;;;19.50;99.90;;;;;;4974648;28;19957;-77
2021/03/03 12:57:46;;;;;;;;;;;19.50;99.90;;;;;;4991585;28;20021;-79
2021/03/03 13:00:14;;;;;;;;;;;19.50;99.90;;;;;;4992420;28;19921;-78
2021/03/03 13:02:41;;;;;;;;;;;19.40;99.90;;;;;;4989889;28;19914;-82
2021/03/03 13:05:11;;;;;;;;;;;19.50;99.90;;;;;;4971459;28;20021;-79
2021/03/03 13:07:38;;;;;;;;;;;19.50;99.90;;;;;;4975800;28;20407;-82
2021/03/03 13:10:05;;;;;;;;;;;19.40;99.90;;;;;;4991849;28;19945;-79
2021/03/03 13:12:32;;;;;;;;;;;19.40;99.90;;;;;;4990723;28;19920;-80
2021/03/03 13:14:59;;;;;;;;;;;19.40;99.90;;;;;;4990537;28;19956;-81
2021/03/03 13:17:25;;;;;;;;;;;19.30;99.90;;;;;;4976892;28;19984;-79
2021/03/03 13:19:52;;;;;;;;;;;19.30;99.90;;;;;;4971753;28;19924;-78
2021/03/03 13:22:19;;;;;;;;;;;19.30;99.90;;;;;;4972766;28;19918;-79
2021/03/03 13:24:45;;;;;;;;;;;19.30;99.90;;;;;;4973820;28;19910;-80
2021/03/03 13:27:12;;;;;;;;;;;19.30;99.90;;;;;;4973174;28;19918;-79
2021/03/03 13:29:40;;;;;;;;;;;19.30;99.90;;;;;;4983496;28;20418;-79
2021/03/03 13:32:10;;;;;;;;;;;19.30;99.90;;;;;;4991714;28;19913;-78
2021/03/03 13:34:38;;;;;;;;;;;19.30;99.90;;;;;;4990306;28;19914;-78
2021/03/03 13:37:05;;;;;;;;;;;19.30;99.90;;;;;;4991155;28;19922;-78
2021/03/03 13:39:31;;;;;;;;;;;19.40;99.90;;;;;;4955244;28;20430;-78
2021/03/03 13:41:58;;;;;;;;;;;19.30;99.90;;;;;;4981224;28;20322;-79
2021/03/03 13:44:26;;;;;;;;;;;19.30;99.90;;;;;;4991712;28;19914;-77
2021/03/03 13:46:53;;;;;;;;;;;19.30;99.90;;;;;;4969415;28;19914;-77
2021/03/03 13:49:19;;;;;;;;;;;19.30;99.90;;;;;;4992144;28;19944;-79
2021/03/03 13:51:46;;;;;;;;;;;19.40;99.90;;;;;;4974414;28;20415;-79
2021/03/03 13:54:14;;;;;;;;;;;19.30;99.90;;;;;;4965926;28;20376;-78
2021/03/03 13:56:41;;;;;;;;;;;19.30;99.90;;;;;;4954605;28;19918;-79
2021/03/03 13:59:08;;;;;;;;;;;19.40;99.90;;;;;;4990981;28;19925;-79
2021/03/03 14:01:37;;;;;;;;;;;19.30;99.90;;;;;;4982875;28;19920;-78
2021/03/03 14:04:05;;;;;;;;;;;19.30;99.90;;;;;;4977048;28;19984;-80
2021/03/03 14:06:32;;;;;;;;;;;19.30;99.90;;;;;;4992674;28;19913;-81
2021/03/03 14:08:58;;;;;;;;;;;19.30;99.90;;;;;;4986854;28;19918;-77
2021/03/03 14:11:25;;;;;;;;;;;19.30;99.90;;;;;;4990754;28;20368;-76
2021/03/03 14:13:52;;;;;;;;;;;19.30;99.90;;;;;;4992942;28;19961;-78
2021/03/03 14:16:19;;;;;;;;;;;19.40;99.90;;;;;;4995120;28;20173;-78
2021/03/03 14:18:46;;;;;;;;;;;19.30;99.90;;;;;;4992772;28;19929;-79
2021/03/03 14:21:15;;;;;;;;;;;19.30;99.90;;;;;;4993745;28;19910;-80
2021/03/03 14:23:42;;;;;;;;;;;19.30;99.90;;;;;;4979745;28;19925;-80